Terminal Aerodrome Forecast
Issued by NWS Cheyenne, WY

Home | Current Version | Previous Version | Text Only | Print | Product List | Glossary On
Versions: 1 2 3 4 5 6 7 8 9 10 11 12 13 14 15 16 17 18 19 20 21 22 23 24 25
000
FTUS45 KCYS 291736
TAFCYS
TAF
KCYS 291736Z 2918/3018 17010KT P6SM SCT050
     FM292000 15011G18KT P6SM -SHRA VCTS SCT060CB BKN100
      TEMPO 2921/2924 2SM +TSRA OVC050CB
     FM300200 17009KT P6SM VCSH BKN100
     FM300600 22005KT P6SM SCT150=

USA.gov is the U.S. government's official web portal to all federal, state and local government web resources and services.